Tingley, Iowa
Current Conditions -  °F | °C
As of 11:15 PM on Wednesday 26 Nov 2014 (Local Time) from KCSQ Reporting Station
Overcast Overcast  
Wind Chill: 11°   Ceiling: 900
Heat Index: 23°   Visibility: 8mi
Dew Point: 21°   Wind: 13mph
Humidity: 93%   Direction: 330°NNW
Pressure: 30.37"   Gusts: NA
Location:  40.85°N, 94.2°W
Report Text: KCSQ 270515Z AUTO 33011KT 8SM OVC009 M05/M06 A3037 RMK AO2
Loading
Personal Weather Stations






























Interactive Weather Map New forecast layout! Learn more

10-Day Weather Forecast

Advertisements
Track Severe Weather on mobile